sensor_id;sensor_type;location;lat;lon;timestamp;pressure;altitude;pressure_sealevel;temperature;humidity
7532;BME280;3807;49.030;8.714;2023-05-11T00:00:27;99137.22;;;16.59;65.42
7532;BME280;3807;49.030;8.714;2023-05-11T00:02:52;99133.38;;;16.52;65.59
7532;BME280;3807;49.030;8.714;2023-05-11T00:05:18;99135.78;;;16.55;65.45
7532;BME280;3807;49.030;8.714;2023-05-11T00:07:43;99131.75;;;16.51;65.52
7532;BME280;3807;49.030;8.714;2023-05-11T00:10:09;99138.19;;;16.44;65.71
7532;BME280;3807;49.030;8.714;2023-05-11T00:12:34;99134.78;;;16.43;65.71
7532;BME280;3807;49.030;8.714;2023-05-11T00:14:59;99139.56;;;16.50;65.46
7532;BME280;3807;49.030;8.714;2023-05-11T00:17:25;99133.22;;;16.41;65.83
7532;BME280;3807;49.030;8.714;2023-05-11T00:19:50;99137.34;;;16.43;65.60
7532;BME280;3807;49.030;8.714;2023-05-11T00:22:16;99133.22;;;16.41;65.64
7532;BME280;3807;49.030;8.714;2023-05-11T00:24:41;99130.66;;;16.41;65.70
7532;BME280;3807;49.030;8.714;2023-05-11T00:27:06;99129.94;;;16.39;65.68
7532;BME280;3807;49.030;8.714;2023-05-11T00:29:32;99134.22;;;16.38;65.62
7532;BME280;3807;49.030;8.714;2023-05-11T00:31:57;99129.53;;;16.31;65.81
7532;BME280;3807;49.030;8.714;2023-05-11T00:34:22;99136.06;;;16.36;65.53
7532;BME280;3807;49.030;8.714;2023-05-11T00:36:48;99129.38;;;16.34;65.28
7532;BME280;3807;49.030;8.714;2023-05-11T00:39:13;99130.75;;;16.25;65.89
7532;BME280;3807;49.030;8.714;2023-05-11T00:41:39;99123.13;;;16.24;65.69
7532;BME280;3807;49.030;8.714;2023-05-11T00:44:04;99115.59;;;16.35;65.41
7532;BME280;3807;49.030;8.714;2023-05-11T00:46:30;99126.34;;;16.27;65.59
7532;BME280;3807;49.030;8.714;2023-05-11T00:48:55;99118.63;;;16.27;65.67
7532;BME280;3807;49.030;8.714;2023-05-11T00:51:21;99126.63;;;16.23;65.84
7532;BME280;3807;49.030;8.714;2023-05-11T00:53:47;99125.97;;;16.19;65.90
7532;BME280;3807;49.030;8.714;2023-05-11T00:56:13;99123.75;;;16.13;66.13
7532;BME280;3807;49.030;8.714;2023-05-11T00:58:38;99129.91;;;16.10;66.03
7532;BME280;3807;49.030;8.714;2023-05-11T01:01:04;99117.34;;;16.06;66.41
7532;BME280;3807;49.030;8.714;2023-05-11T01:03:30;99119.09;;;16.05;66.38
7532;BME280;3807;49.030;8.714;2023-05-11T01:06:16;99123.94;;;16.10;65.79
7532;BME280;3807;49.030;8.714;2023-05-11T01:08:51;99126.69;;;16.07;66.38
7532;BME280;3807;49.030;8.714;2023-05-11T01:11:44;99126.22;;;16.00;66.20
7532;BME280;3807;49.030;8.714;2023-05-11T01:14:22;99125.41;;;16.00;66.24
7532;BME280;3807;49.030;8.714;2023-05-11T01:16:54;99124.22;;;16.05;66.19
7532;BME280;3807;49.030;8.714;2023-05-11T01:19:40;99120.44;;;15.96;66.47
7532;BME280;3807;49.030;8.714;2023-05-11T01:31:17;99115.13;;;15.85;66.58
7532;BME280;3807;49.030;8.714;2023-05-11T01:33:53;99114.28;;;15.85;66.73
7532;BME280;3807;49.030;8.714;2023-05-11T01:36:24;99116.50;;;15.91;66.69
7532;BME280;3807;49.030;8.714;2023-05-11T01:38:53;99117.78;;;15.84;66.64
7532;BME280;3807;49.030;8.714;2023-05-11T01:41:22;99119.31;;;15.86;66.44
7532;BME280;3807;49.030;8.714;2023-05-11T01:43:59;99114.47;;;15.82;66.85
7532;BME280;3807;49.030;8.714;2023-05-11T01:46:30;99115.22;;;15.84;66.23
7532;BME280;3807;49.030;8.714;2023-05-11T01:48:57;99115.22;;;15.84;66.72
7532;BME280;3807;49.030;8.714;2023-05-11T01:51:26;99108.63;;;15.80;66.87
7532;BME280;3807;49.030;8.714;2023-05-11T01:53:52;99117.31;;;15.77;66.80
7532;BME280;3807;49.030;8.714;2023-05-11T01:56:20;99118.88;;;15.80;66.65
7532;BME280;3807;49.030;8.714;2023-05-11T01:58:48;99115.47;;;15.79;66.60
7532;BME280;3807;49.030;8.714;2023-05-11T02:01:16;99130.97;;;15.78;66.58
7532;BME280;3807;49.030;8.714;2023-05-11T02:03:43;99123.53;;;15.73;66.71
7532;BME280;3807;49.030;8.714;2023-05-11T02:06:10;99125.47;;;15.69;66.92
7532;BME280;3807;49.030;8.714;2023-05-11T02:08:39;99123.78;;;15.68;66.90
7532;BME280;3807;49.030;8.714;2023-05-11T02:11:06;99122.28;;;15.64;66.98
7532;BME280;3807;49.030;8.714;2023-05-11T02:13:33;99120.81;;;15.60;67.12
7532;BME280;3807;49.030;8.714;2023-05-11T02:16:01;99120.06;;;15.58;67.15
7532;BME280;3807;49.030;8.714;2023-05-11T02:18:28;99122.63;;;15.58;67.13
7532;BME280;3807;49.030;8.714;2023-05-11T02:20:55;99128.84;;;15.54;67.43
7532;BME280;3807;49.030;8.714;2023-05-11T02:23:22;99124.53;;;15.55;67.44
7532;BME280;3807;49.030;8.714;2023-05-11T02:25:51;99121.97;;;15.55;67.39
7532;BME280;3807;49.030;8.714;2023-05-11T02:28:17;99122.19;;;15.52;67.47
7532;BME280;3807;49.030;8.714;2023-05-11T02:30:48;99120.44;;;15.52;67.41
7532;BME280;3807;49.030;8.714;2023-05-11T02:33:20;99124.75;;;15.52;67.53
7532;BME280;3807;49.030;8.714;2023-05-11T02:35:50;99127.50;;;15.48;67.42
7532;BME280;3807;49.030;8.714;2023-05-11T02:38:16;99134.34;;;15.48;67.50
7532;BME280;3807;49.030;8.714;2023-05-11T02:40:47;99125.00;;;15.47;67.27
7532;BME280;3807;49.030;8.714;2023-05-11T02:43:19;99124.00;;;15.49;67.31
7532;BME280;3807;49.030;8.714;2023-05-11T02:45:47;99126.63;;;15.48;67.26
7532;BME280;3807;49.030;8.714;2023-05-11T02:48:20;99125.16;;;15.44;67.53
7532;BME280;3807;49.030;8.714;2023-05-11T02:50:47;99127.00;;;15.42;67.45
7532;BME280;3807;49.030;8.714;2023-05-11T02:53:15;99129.56;;;15.42;67.63
7532;BME280;3807;49.030;8.714;2023-05-11T02:55:42;99122.59;;;15.44;67.07
7532;BME280;3807;49.030;8.714;2023-05-11T02:58:08;99127.00;;;15.42;67.39
7532;BME280;3807;49.030;8.714;2023-05-11T03:00:34;99122.88;;;15.39;67.55
7532;BME280;3807;49.030;8.714;2023-05-11T03:02:59;99123.69;;;15.40;67.58
7532;BME280;3807;49.030;8.714;2023-05-11T03:05:25;99119.47;;;15.39;67.36
7532;BME280;3807;49.030;8.714;2023-05-11T03:07:52;99108.56;;;15.35;67.52
7532;BME280;3807;49.030;8.714;2023-05-11T03:10:23;99118.72;;;15.37;67.30
7532;BME280;3807;49.030;8.714;2023-05-11T03:12:50;99116.16;;;15.37;67.31
7532;BME280;3807;49.030;8.714;2023-05-11T03:15:16;99110.38;;;15.33;66.72
7532;BME280;3807;49.030;8.714;2023-05-11T03:17:42;99114.69;;;15.33;67.39
7532;BME280;3807;49.030;8.714;2023-05-11T03:20:08;99119.97;;;15.30;67.69
7532;BME280;3807;49.030;8.714;2023-05-11T03:22:35;99122.81;;;15.25;67.78
7532;BME280;3807;49.030;8.714;2023-05-11T03:25:02;99119.91;;;15.31;67.56
7532;BME280;3807;49.030;8.714;2023-05-11T03:27:28;99118.34;;;15.29;67.31
7532;BME280;3807;49.030;8.714;2023-05-11T03:29:54;99116.28;;;15.19;67.20
7532;BME280;3807;49.030;8.714;2023-05-11T03:32:20;99123.91;;;15.21;67.25
7532;BME280;3807;49.030;8.714;2023-05-11T03:34:45;99116.37;;;15.18;67.71
7532;BME280;3807;49.030;8.714;2023-05-11T03:37:12;99122.88;;;15.23;67.63
7532;BME280;3807;49.030;8.714;2023-05-11T03:39:38;99118.78;;;15.21;67.09
7532;BME280;3807;49.030;8.714;2023-05-11T03:42:06;99104.63;;;15.14;66.96
7532;BME280;3807;49.030;8.714;2023-05-11T03:44:32;99113.72;;;15.19;66.92
7532;BME280;3807;49.030;8.714;2023-05-11T03:46:59;99110.06;;;15.23;67.35
7532;BME280;3807;49.030;8.714;2023-05-11T03:49:25;99106.00;;;15.19;66.70
7532;BME280;3807;49.030;8.714;2023-05-11T03:51:51;99109.22;;;15.23;66.83
7532;BME280;3807;49.030;8.714;2023-05-11T03:54:17;99108.50;;;15.21;66.76
7532;BME280;3807;49.030;8.714;2023-05-11T03:56:43;99108.06;;;15.29;66.84
7532;BME280;3807;49.030;8.714;2023-05-11T03:59:13;99106.59;;;15.24;66.43
7532;BME280;3807;49.030;8.714;2023-05-11T04:01:41;99102.56;;;15.20;66.65
7532;BME280;3807;49.030;8.714;2023-05-11T04:04:06;99104.53;;;15.15;66.85
7532;BME280;3807;49.030;8.714;2023-05-11T04:06:32;99104.47;;;15.17;66.98
7532;BME280;3807;49.030;8.714;2023-05-11T04:08:57;99109.22;;;15.23;66.78
7532;BME280;3807;49.030;8.714;2023-05-11T04:11:22;99107.53;;;15.08;66.93
7532;BME280;3807;49.030;8.714;2023-05-11T04:13:48;99107.44;;;15.09;66.93
7532;BME280;3807;49.030;8.714;2023-05-11T04:16:13;99111.41;;;15.15;66.93
7532;BME280;3807;49.030;8.714;2023-05-11T04:18:38;99109.00;;;15.12;67.07
7532;BME280;3807;49.030;8.714;2023-05-11T04:21:04;99101.31;;;15.12;67.05
7532;BME280;3807;49.030;8.714;2023-05-11T04:23:30;99108.56;;;15.19;67.05
7532;BME280;3807;49.030;8.714;2023-05-11T04:25:55;99103.81;;;15.13;67.50
7532;BME280;3807;49.030;8.714;2023-05-11T04:28:21;99110.16;;;15.06;67.03
7532;BME280;3807;49.030;8.714;2023-05-11T04:30:55;99107.84;;;15.17;67.43
7532;BME280;3807;49.030;8.714;2023-05-11T04:33:21;99107.44;;;15.09;67.37
7532;BME280;3807;49.030;8.714;2023-05-11T04:35:51;99101.31;;;15.12;66.78
7532;BME280;3807;49.030;8.714;2023-05-11T04:38:17;99110.31;;;15.19;66.60
7532;BME280;3807;49.030;8.714;2023-05-11T04:40:43;99107.38;;;15.11;66.84
7532;BME280;3807;49.030;8.714;2023-05-11T04:43:08;99103.31;;;15.07;67.62
7532;BME280;3807;49.030;8.714;2023-05-11T04:45:34;99103.38;;;15.05;67.08
7532;BME280;3807;49.030;8.714;2023-05-11T04:47:59;99106.06;;;15.04;67.24
7532;BME280;3807;49.030;8.714;2023-05-11T04:50:24;99107.97;;;15.00;67.29
7532;BME280;3807;49.030;8.714;2023-05-11T04:52:50;99107.88;;;14.86;67.64
7532;BME280;3807;49.030;8.714;2023-05-11T04:55:15;99114.66;;;14.87;67.57
7532;BME280;3807;49.030;8.714;2023-05-11T04:57:41;99111.19;;;14.88;67.78
7532;BME280;3807;49.030;8.714;2023-05-11T05:00:07;99109.78;;;14.98;67.28
7532;BME280;3807;49.030;8.714;2023-05-11T05:02:33;99110.09;;;15.08;67.11
7532;BME280;3807;49.030;8.714;2023-05-11T05:04:58;99115.00;;;14.96;67.30
7532;BME280;3807;49.030;8.714;2023-05-11T05:07:24;99117.56;;;14.96;67.64
7532;BME280;3807;49.030;8.714;2023-05-11T05:09:50;99118.94;;;15.02;67.46
7532;BME280;3807;49.030;8.714;2023-05-11T05:12:15;99122.31;;;15.02;67.29
7532;BME280;3807;49.030;8.714;2023-05-11T05:14:41;99126.78;;;14.99;67.31
7532;BME280;3807;49.030;8.714;2023-05-11T05:17:06;99122.00;;;15.09;67.13
7532;BME280;3807;49.030;8.714;2023-05-11T05:19:31;99122.75;;;15.11;67.24
7532;BME280;3807;49.030;8.714;2023-05-11T05:21:57;99122.69;;;14.96;67.24
7532;BME280;3807;49.030;8.714;2023-05-11T05:24:22;99125.97;;;14.98;67.33
7532;BME280;3807;49.030;8.714;2023-05-11T05:26:47;99134.31;;;15.02;67.36
7532;BME280;3807;49.030;8.714;2023-05-11T05:29:13;99133.19;;;14.43;69.51
7532;BME280;3807;49.030;8.714;2023-05-11T05:31:38;99132.87;;;14.82;68.31
7532;BME280;3807;49.030;8.714;2023-05-11T05:34:03;99129.44;;;14.82;68.10
7532;BME280;3807;49.030;8.714;2023-05-11T05:36:29;99132.94;;;14.81;68.25
7532;BME280;3807;49.030;8.714;2023-05-11T05:38:55;99131.59;;;14.73;68.29
7532;BME280;3807;49.030;8.714;2023-05-11T05:41:21;99134.19;;;14.89;67.92
7532;BME280;3807;49.030;8.714;2023-05-11T05:43:47;99123.59;;;14.80;68.25
7532;BME280;3807;49.030;8.714;2023-05-11T05:46:13;99134.25;;;14.88;67.99
7532;BME280;3807;49.030;8.714;2023-05-11T05:48:38;99138.41;;;14.90;68.05
7532;BME280;3807;49.030;8.714;2023-05-11T05:51:04;99142.47;;;14.79;68.44
7532;BME280;3807;49.030;8.714;2023-05-11T05:53:29;99137.63;;;14.88;68.28
7532;BME280;3807;49.030;8.714;2023-05-11T05:55:54;99139.03;;;14.78;68.52
7532;BME280;3807;49.030;8.714;2023-05-11T05:58:20;99132.94;;;14.81;68.51
7532;BME280;3807;49.030;8.714;2023-05-11T06:00:45;99131.19;;;14.81;68.40
7532;BME280;3807;49.030;8.714;2023-05-11T06:03:11;99135.25;;;14.85;68.22
7532;BME280;3807;49.030;8.714;2023-05-11T06:05:36;99135.06;;;14.88;68.48
7532;BME280;3807;49.030;8.714;2023-05-11T06:08:01;99144.03;;;14.97;67.78
7532;BME280;3807;49.030;8.714;2023-05-11T06:10:27;99143.25;;;14.95;67.82
7532;BME280;3807;49.030;8.714;2023-05-11T06:12:52;99140.06;;;14.75;68.83
7532;BME280;3807;49.030;8.714;2023-05-11T06:15:17;99150.78;;;14.66;69.49
7532;BME280;3807;49.030;8.714;2023-05-11T06:17:43;99139.81;;;14.80;68.82
7532;BME280;3807;49.030;8.714;2023-05-11T06:20:08;99134.91;;;14.91;68.27
7532;BME280;3807;49.030;8.714;2023-05-11T06:22:34;99136.06;;;15.01;67.98
7532;BME280;3807;49.030;8.714;2023-05-11T06:24:59;99145.09;;;14.93;68.01
7532;BME280;3807;49.030;8.714;2023-05-11T06:27:25;99139.16;;;14.92;68.21
7532;BME280;3807;49.030;8.714;2023-05-11T06:29:50;99135.59;;;14.46;70.08
7532;BME280;3807;49.030;8.714;2023-05-11T06:32:16;99136.91;;;14.86;68.70
7532;BME280;3807;49.030;8.714;2023-05-11T06:34:41;99138.47;;;15.05;67.91
7532;BME280;3807;49.030;8.714;2023-05-11T06:37:06;99137.91;;;14.99;68.00
7532;BME280;3807;49.030;8.714;2023-05-11T06:39:35;99137.16;;;14.97;67.92
7532;BME280;3807;49.030;8.714;2023-05-11T06:42:03;99132.91;;;15.12;67.46
7532;BME280;3807;49.030;8.714;2023-05-11T06:44:29;99140.53;;;15.14;67.37
7532;BME280;3807;49.030;8.714;2023-05-11T06:46:54;99138.47;;;15.20;67.08
7532;BME280;3807;49.030;8.714;2023-05-11T06:49:19;99135.31;;;15.15;67.30
7532;BME280;3807;49.030;8.714;2023-05-11T06:51:45;99137.06;;;15.31;66.95
7532;BME280;3807;49.030;8.714;2023-05-11T06:54:11;99138.09;;;15.27;66.80
7532;BME280;3807;49.030;8.714;2023-05-11T06:56:36;99135.06;;;15.20;67.26
7532;BME280;3807;49.030;8.714;2023-05-11T06:59:01;99140.37;;;15.17;67.75
7532;BME280;3807;49.030;8.714;2023-05-11T07:01:27;99139.94;;;15.24;67.36
7532;BME280;3807;49.030;8.714;2023-05-11T07:03:55;99145.97;;;15.23;67.38
7532;BME280;3807;49.030;8.714;2023-05-11T07:06:20;99147.75;;;15.07;67.67
7532;BME280;3807;49.030;8.714;2023-05-11T07:08:46;99148.47;;;15.09;67.74
7532;BME280;3807;49.030;8.714;2023-05-11T07:11:11;99146.34;;;15.01;67.98
7532;BME280;3807;49.030;8.714;2023-05-11T07:13:37;99153.34;;;14.98;68.20
7532;BME280;3807;49.030;8.714;2023-05-11T07:16:02;99149.16;;;14.97;68.24
7532;BME280;3807;49.030;8.714;2023-05-11T07:18:28;99158.72;;;15.09;67.79
7532;BME280;3807;49.030;8.714;2023-05-11T07:20:53;99157.91;;;15.09;67.75
7532;BME280;3807;49.030;8.714;2023-05-11T07:23:19;99155.28;;;15.10;68.00
7532;BME280;3807;49.030;8.714;2023-05-11T07:25:44;99162.28;;;15.22;67.65
7532;BME280;3807;49.030;8.714;2023-05-11T07:28:09;99152.94;;;15.21;67.78
7532;BME280;3807;49.030;8.714;2023-05-11T07:30:35;99163.94;;;15.23;67.38
7532;BME280;3807;49.030;8.714;2023-05-11T07:33:00;99159.97;;;15.18;67.61
7532;BME280;3807;49.030;8.714;2023-05-11T07:35:27;99159.72;;;15.22;67.76
7532;BME280;3807;49.030;8.714;2023-05-11T07:37:52;99166.44;;;15.25;67.32
7532;BME280;3807;49.030;8.714;2023-05-11T07:40:17;99164.44;;;15.14;67.66
7532;BME280;3807;49.030;8.714;2023-05-11T07:42:43;99163.34;;;15.02;68.01
7532;BME280;3807;49.030;8.714;2023-05-11T07:45:08;99165.09;;;15.18;67.63
7532;BME280;3807;49.030;8.714;2023-05-11T07:47:34;99166.66;;;15.36;66.97
7532;BME280;3807;49.030;8.714;2023-05-11T07:49:59;99176.25;;;15.33;67.12
7532;BME280;3807;49.030;8.714;2023-05-11T07:52:25;99173.22;;;15.10;68.30
7532;BME280;3807;49.030;8.714;2023-05-11T07:54:50;99171.28;;;15.30;67.53
7532;BME280;3807;49.030;8.714;2023-05-11T07:57:16;99172.78;;;15.34;67.50
7532;BME280;3807;49.030;8.714;2023-05-11T07:59:41;99174.62;;;15.32;67.32
7532;BME280;3807;49.030;8.714;2023-05-11T08:02:07;99169.97;;;15.22;67.85
7532;BME280;3807;49.030;8.714;2023-05-11T08:04:33;99168.81;;;15.28;67.60
7532;BME280;3807;49.030;8.714;2023-05-11T08:06:58;99167.56;;;15.35;67.60
7532;BME280;3807;49.030;8.714;2023-05-11T08:09:24;99167.12;;;15.43;67.23
7532;BME280;3807;49.030;8.714;2023-05-11T08:11:50;99169.53;;;15.46;67.12
7532;BME280;3807;49.030;8.714;2023-05-11T08:14:15;99175.28;;;15.35;67.40
7532;BME280;3807;49.030;8.714;2023-05-11T08:16:41;99176.41;;;15.45;67.17
7532;BME280;3807;49.030;8.714;2023-05-11T08:19:07;99169.38;;;15.49;67.02
7532;BME280;3807;49.030;8.714;2023-05-11T08:21:32;99169.44;;;15.47;67.05
7532;BME280;3807;49.030;8.714;2023-05-11T08:23:57;99172.09;;;15.46;67.11
7532;BME280;3807;49.030;8.714;2023-05-11T08:26:23;99168.63;;;15.47;67.13
7532;BME280;3807;49.030;8.714;2023-05-11T08:28:48;99169.09;;;15.54;66.98
7532;BME280;3807;49.030;8.714;2023-05-11T08:31:16;99161.50;;;15.52;67.10
7532;BME280;3807;49.030;8.714;2023-05-11T08:33:42;99168.66;;;15.31;67.92
7532;BME280;3807;49.030;8.714;2023-05-11T08:36:08;99162.75;;;15.45;67.59
7532;BME280;3807;49.030;8.714;2023-05-11T08:38:34;99165.81;;;15.52;66.97
7532;BME280;3807;49.030;8.714;2023-05-11T08:41:01;99170.37;;;15.46;67.56
7532;BME280;3807;49.030;8.714;2023-05-11T08:43:27;99173.53;;;15.36;67.78
7532;BME280;3807;49.030;8.714;2023-05-11T08:45:56;99168.41;;;15.36;67.79
7532;BME280;3807;49.030;8.714;2023-05-11T08:48:25;99182.38;;;15.46;67.46
7532;BME280;3807;49.030;8.714;2023-05-11T08:50:50;99177.25;;;15.46;67.13
7532;BME280;3807;49.030;8.714;2023-05-11T08:53:16;99165.06;;;15.49;67.28
7532;BME280;3807;49.030;8.714;2023-05-11T08:55:42;99173.75;;;15.47;67.50
7532;BME280;3807;49.030;8.714;2023-05-11T08:58:08;99171.00;;;15.50;67.40
7532;BME280;3807;49.030;8.714;2023-05-11T09:00:34;99180.34;;;15.51;67.35
7532;BME280;3807;49.030;8.714;2023-05-11T09:03:02;99174.62;;;15.62;66.98
7532;BME280;3807;49.030;8.714;2023-05-11T09:05:28;99171.66;;;15.54;67.30
7532;BME280;3807;49.030;8.714;2023-05-11T09:07:59;99172.44;;;15.56;67.21
7532;BME280;3807;49.030;8.714;2023-05-11T09:10:26;99175.97;;;15.53;67.74
7532;BME280;3807;49.030;8.714;2023-05-11T09:12:51;99175.72;;;15.58;67.25
7532;BME280;3807;49.030;8.714;2023-05-11T09:15:17;99176.00;;;15.69;66.92
7532;BME280;3807;49.030;8.714;2023-05-11T09:17:42;99179.00;;;15.76;66.58
7532;BME280;3807;49.030;8.714;2023-05-11T09:20:08;99179.00;;;15.76;66.70
7532;BME280;3807;49.030;8.714;2023-05-11T09:22:44;99172.97;;;15.77;66.58
7532;BME280;3807;49.030;8.714;2023-05-11T09:25:11;99182.50;;;15.75;66.64
7532;BME280;3807;49.030;8.714;2023-05-11T09:27:44;99176.88;;;15.98;65.93
7532;BME280;3807;49.030;8.714;2023-05-11T09:32:51;99174.75;;;15.90;66.22
7532;BME280;3807;49.030;8.714;2023-05-11T09:35:21;99181.25;;;15.96;65.85
7532;BME280;3807;49.030;8.714;2023-05-11T09:38:04;99176.78;;;16.00;65.76
7532;BME280;3807;49.030;8.714;2023-05-11T09:42:59;99178.53;;;15.99;65.84
7532;BME280;3807;49.030;8.714;2023-05-11T09:45:42;99185.31;;;16.00;66.11
7532;BME280;3807;49.030;8.714;2023-05-11T09:50:49;99178.72;;;16.10;65.49
7532;BME280;3807;49.030;8.714;2023-05-11T09:53:15;99176.44;;;16.06;65.88
7532;BME280;3807;49.030;8.714;2023-05-11T09:55:51;99173.03;;;16.05;65.82
7532;BME280;3807;49.030;8.714;2023-05-11T09:58:16;99169.94;;;16.14;65.84
7532;BME280;3807;49.030;8.714;2023-05-11T10:00:51;99168.25;;;16.13;65.82
7532;BME280;3807;49.030;8.714;2023-05-11T10:03:18;99168.53;;;16.09;66.01
7532;BME280;3807;49.030;8.714;2023-05-11T10:05:58;99175.31;;;16.10;66.11
7532;BME280;3807;49.030;8.714;2023-05-11T10:08:28;99170.00;;;16.13;66.16
7532;BME280;3807;49.030;8.714;2023-05-11T10:11:00;99176.38;;;16.22;65.91
7532;BME280;3807;49.030;8.714;2023-05-11T10:13:26;99174.69;;;16.20;65.76
7532;BME280;3807;49.030;8.714;2023-05-11T10:15:53;99165.69;;;16.28;65.72
7532;BME280;3807;49.030;8.714;2023-05-11T10:18:19;99175.16;;;16.27;65.75
7532;BME280;3807;49.030;8.714;2023-05-11T10:20:44;99175.34;;;16.24;66.25
7532;BME280;3807;49.030;8.714;2023-05-11T10:23:10;99177.91;;;16.24;66.18
7532;BME280;3807;49.030;8.714;2023-05-11T10:25:36;99170.66;;;16.31;65.79
7532;BME280;3807;49.030;8.714;2023-05-11T10:28:02;99168.47;;;16.39;65.49
7532;BME280;3807;49.030;8.714;2023-05-11T10:30:27;99168.91;;;16.31;65.81
7532;BME280;3807;49.030;8.714;2023-05-11T10:32:54;99165.72;;;16.42;66.03
7532;BME280;3807;49.030;8.714;2023-05-11T10:35:20;99164.81;;;16.43;66.21
7532;BME280;3807;49.030;8.714;2023-05-11T10:37:45;99164.53;;;16.48;65.57
7532;BME280;3807;49.030;8.714;2023-05-11T10:40:12;99165.34;;;16.62;65.37
7532;BME280;3807;49.030;8.714;2023-05-11T11:02:17;99162.06;;;16.75;66.39
7532;BME280;3807;49.030;8.714;2023-05-11T11:04:46;99162.97;;;16.74;66.71
7532;BME280;3807;49.030;8.714;2023-05-11T11:07:12;99156.25;;;16.85;65.94
7532;BME280;3807;49.030;8.714;2023-05-11T11:09:59;99158.00;;;16.85;65.79
7532;BME280;3807;49.030;8.714;2023-05-11T11:12:26;99157.19;;;16.70;65.67
7532;BME280;3807;49.030;8.714;2023-05-11T11:14:55;99152.12;;;16.83;65.52
7532;BME280;3807;49.030;8.714;2023-05-11T11:17:22;99148.63;;;16.84;65.28
7532;BME280;3807;49.030;8.714;2023-05-11T11:19:49;99149.47;;;16.84;65.32
7532;BME280;3807;49.030;8.714;2023-05-11T11:22:50;99143.53;;;16.97;65.04
7532;BME280;3807;49.030;8.714;2023-05-11T11:25:49;99151.69;;;17.03;65.39
7532;BME280;3807;49.030;8.714;2023-05-11T11:28:14;99147.87;;;16.96;65.16
7532;BME280;3807;49.030;8.714;2023-05-11T11:30:40;99147.19;;;17.07;65.17
7532;BME280;3807;49.030;8.714;2023-05-11T11:38:14;99137.38;;;16.99;65.28
7532;BME280;3807;49.030;8.714;2023-05-11T11:43:16;99143.41;;;17.12;64.96
7532;BME280;3807;49.030;8.714;2023-05-11T11:48:33;99144.69;;;17.20;64.06
7532;BME280;3807;49.030;8.714;2023-05-11T11:51:05;99136.28;;;17.30;64.37
7532;BME280;3807;49.030;8.714;2023-05-11T12:01:20;99133.88;;;17.27;64.71
7532;BME280;3807;49.030;8.714;2023-05-11T12:04:16;99134.03;;;17.38;64.42
7532;BME280;3807;49.030;8.714;2023-05-11T12:06:39;99129.25;;;17.32;64.52
7532;BME280;3807;49.030;8.714;2023-05-11T12:09:05;99132.81;;;17.44;64.20
7532;BME280;3807;49.030;8.714;2023-05-11T12:11:31;99132.31;;;17.25;64.84
7532;BME280;3807;49.030;8.714;2023-05-11T12:13:58;99132.63;;;17.60;63.10
7532;BME280;3807;49.030;8.714;2023-05-11T12:16:24;99126.13;;;17.54;63.84
7532;BME280;3807;49.030;8.714;2023-05-11T12:18:55;99125.91;;;17.45;64.03
7532;BME280;3807;49.030;8.714;2023-05-11T12:21:22;99132.22;;;17.66;63.36
7532;BME280;3807;49.030;8.714;2023-05-11T12:24:03;99125.25;;;17.81;62.76
7532;BME280;3807;49.030;8.714;2023-05-11T12:26:30;99127.13;;;17.79;61.50
7532;BME280;3807;49.030;8.714;2023-05-11T12:29:13;99119.97;;;17.70;63.32
7532;BME280;3807;49.030;8.714;2023-05-11T12:31:41;99113.97;;;17.56;63.97
7532;BME280;3807;49.030;8.714;2023-05-11T12:34:13;99113.06;;;17.70;63.37
7532;BME280;3807;49.030;8.714;2023-05-11T12:36:38;99116.09;;;17.90;62.80
7532;BME280;3807;49.030;8.714;2023-05-11T12:39:04;99113.19;;;17.81;62.91
7532;BME280;3807;49.030;8.714;2023-05-11T12:41:29;99110.53;;;17.83;63.07
7532;BME280;3807;49.030;8.714;2023-05-11T12:43:55;99107.81;;;17.72;63.48
7532;BME280;3807;49.030;8.714;2023-05-11T12:46:20;99108.38;;;17.77;63.42
7532;BME280;3807;49.030;8.714;2023-05-11T12:48:47;99106.22;;;17.96;62.95
7532;BME280;3807;49.030;8.714;2023-05-11T12:51:13;99111.16;;;17.99;62.71
7532;BME280;3807;49.030;8.714;2023-05-11T12:53:39;99110.72;;;18.05;62.69
7532;BME280;3807;49.030;8.714;2023-05-11T12:56:07;99109.59;;;18.09;62.56
7532;BME280;3807;49.030;8.714;2023-05-11T12:58:37;99099.19;;;18.24;62.01
7532;BME280;3807;49.030;8.714;2023-05-11T13:01:03;99099.81;;;18.27;61.30
7532;BME280;3807;49.030;8.714;2023-05-11T13:03:31;99094.34;;;18.19;62.20
7532;BME280;3807;49.030;8.714;2023-05-11T13:06:11;99092.69;;;18.31;61.61
7532;BME280;3807;49.030;8.714;2023-05-11T13:08:43;99086.19;;;18.25;62.06
7532;BME280;3807;49.030;8.714;2023-05-11T13:11:35;99086.37;;;18.35;61.62
7532;BME280;3807;49.030;8.714;2023-05-11T13:14:14;99071.41;;;18.40;61.46
7532;BME280;3807;49.030;8.714;2023-05-11T13:16:40;99075.41;;;18.44;60.11
7532;BME280;3807;49.030;8.714;2023-05-11T13:19:06;99082.38;;;18.31;61.89
7532;BME280;3807;49.030;8.714;2023-05-11T13:21:32;99072.31;;;18.52;61.08
7532;BME280;3807;49.030;8.714;2023-05-11T13:23:59;99067.62;;;18.70;60.61
7532;BME280;3807;49.030;8.714;2023-05-11T13:26:25;99069.81;;;18.76;57.56
7532;BME280;3807;49.030;8.714;2023-05-11T13:28:52;99065.13;;;18.68;60.26
7532;BME280;3807;49.030;8.714;2023-05-11T13:31:17;99061.00;;;18.78;58.11
7532;BME280;3807;49.030;8.714;2023-05-11T13:33:48;99056.47;;;18.69;60.49
7532;BME280;3807;49.030;8.714;2023-05-11T13:36:14;99055.53;;;18.70;60.77
7532;BME280;3807;49.030;8.714;2023-05-11T13:38:40;99052.34;;;18.67;61.03
7532;BME280;3807;49.030;8.714;2023-05-11T13:41:05;99053.19;;;18.67;61.12
7532;BME280;3807;49.030;8.714;2023-05-11T13:43:31;99055.19;;;18.88;60.86
7532;BME280;3807;49.030;8.714;2023-05-11T13:45:56;99041.37;;;19.00;59.18
7532;BME280;3807;49.030;8.714;2023-05-11T13:48:22;99052.47;;;18.89;60.42
7532;BME280;3807;49.030;8.714;2023-05-11T13:50:47;99044.75;;;18.89;60.65
7532;BME280;3807;49.030;8.714;2023-05-11T13:53:12;99044.22;;;18.97;60.34
7532;BME280;3807;49.030;8.714;2023-05-11T13:55:38;99034.25;;;19.03;60.12
7532;BME280;3807;49.030;8.714;2023-05-11T13:58:04;99039.38;;;18.92;60.30
7532;BME280;3807;49.030;8.714;2023-05-11T14:00:30;99041.09;;;18.80;60.78
7532;BME280;3807;49.030;8.714;2023-05-11T14:02:55;99043.97;;;19.00;60.46
7532;BME280;3807;49.030;8.714;2023-05-11T14:05:22;99039.88;;;18.97;60.55
7532;BME280;3807;49.030;8.714;2023-05-11T14:07:47;99041.37;;;19.00;60.41
7532;BME280;3807;49.030;8.714;2023-05-11T14:10:13;99035.53;;;18.98;60.40
7532;BME280;3807;49.030;8.714;2023-05-11T14:12:38;99036.16;;;19.13;59.39
7532;BME280;3807;49.030;8.714;2023-05-11T14:15:04;99037.12;;;19.23;59.62
7532;BME280;3807;49.030;8.714;2023-05-11T14:17:30;99033.53;;;19.37;57.74